sensor_id;sensor_type;location;lat;lon;timestamp;temperature;humidity
41469;DHT22;27206;47.032;15.484;2023-04-03T00:00:53;5.60;99.90
41469;DHT22;27206;47.032;15.484;2023-04-03T00:03:20;5.70;99.90
41469;DHT22;27206;47.032;15.484;2023-04-03T00:05:46;5.60;99.90
41469;DHT22;27206;47.032;15.484;2023-04-03T00:08:12;5.50;99.90
41469;DHT22;27206;47.032;15.484;2023-04-03T00:10:38;5.50;99.90
41469;DHT22;27206;47.032;15.484;2023-04-03T00:13:07;5.40;99.90
41469;DHT22;27206;47.032;15.484;2023-04-03T00:15:34;5.40;99.90
41469;DHT22;27206;47.032;15.484;2023-04-03T00:18:00;5.30;99.90
41469;DHT22;27206;47.032;15.484;2023-04-03T00:20:26;5.30;99.90
41469;DHT22;27206;47.032;15.484;2023-04-03T00:22:53;5.30;99.90
41469;DHT22;27206;47.032;15.484;2023-04-03T00:25:19;5.30;99.90
41469;DHT22;27206;47.032;15.484;2023-04-03T00:27:45;5.30;99.90
41469;DHT22;27206;47.032;15.484;2023-04-03T00:30:13;5.20;99.90
41469;DHT22;27206;47.032;15.484;2023-04-03T00:32:39;5.20;99.90
41469;DHT22;27206;47.032;15.484;2023-04-03T00:35:06;5.20;99.90
41469;DHT22;27206;47.032;15.484;2023-04-03T00:37:32;5.20;99.90
41469;DHT22;27206;47.032;15.484;2023-04-03T00:39:58;5.10;99.90
41469;DHT22;27206;47.032;15.484;2023-04-03T00:42:24;5.10;99.90
41469;DHT22;27206;47.032;15.484;2023-04-03T00:47:18;4.80;99.90
41469;DHT22;27206;47.032;15.484;2023-04-03T00:49:44;4.80;99.90
41469;DHT22;27206;47.032;15.484;2023-04-03T00:52:15;4.80;99.90
41469;DHT22;27206;47.032;15.484;2023-04-03T00:54:42;4.70;99.90
41469;DHT22;27206;47.032;15.484;2023-04-03T00:57:10;4.60;99.90
41469;DHT22;27206;47.032;15.484;2023-04-03T00:59:44;4.50;99.90
41469;DHT22;27206;47.032;15.484;2023-04-03T01:02:11;4.40;99.90
41469;DHT22;27206;47.032;15.484;2023-04-03T01:04:40;4.40;99.90
41469;DHT22;27206;47.032;15.484;2023-04-03T01:07:15;4.40;99.90
41469;DHT22;27206;47.032;15.484;2023-04-03T01:09:42;4.40;99.90
41469;DHT22;27206;47.032;15.484;2023-04-03T01:14:47;4.40;99.90
41469;DHT22;27206;47.032;15.484;2023-04-03T01:25:53;4.40;99.90
41469;DHT22;27206;47.032;15.484;2023-04-03T01:28:21;4.40;99.90
41469;DHT22;27206;47.032;15.484;2023-04-03T01:33:44;4.40;99.90
41469;DHT22;27206;47.032;15.484;2023-04-03T01:36:15;4.30;99.90
41469;DHT22;27206;47.032;15.484;2023-04-03T01:38:41;4.30;99.90
41469;DHT22;27206;47.032;15.484;2023-04-03T01:41:07;4.20;99.90
41469;DHT22;27206;47.032;15.484;2023-04-03T01:43:32;4.20;99.90
41469;DHT22;27206;47.032;15.484;2023-04-03T01:45:58;4.20;99.90
41469;DHT22;27206;47.032;15.484;2023-04-03T01:48:23;4.20;99.90
41469;DHT22;27206;47.032;15.484;2023-04-03T01:50:49;4.20;99.90
41469;DHT22;27206;47.032;15.484;2023-04-03T01:53:15;4.10;99.90
41469;DHT22;27206;47.032;15.484;2023-04-03T01:55:40;4.10;99.90
41469;DHT22;27206;47.032;15.484;2023-04-03T01:58:06;4.10;99.90
41469;DHT22;27206;47.032;15.484;2023-04-03T02:00:32;4.10;99.90
41469;DHT22;27206;47.032;15.484;2023-04-03T02:02:57;4.00;99.90
41469;DHT22;27206;47.032;15.484;2023-04-03T02:05:23;4.00;99.90
41469;DHT22;27206;47.032;15.484;2023-04-03T02:07:49;4.00;99.90
41469;DHT22;27206;47.032;15.484;2023-04-03T02:10:14;4.00;99.90
41469;DHT22;27206;47.032;15.484;2023-04-03T02:12:40;4.00;99.90
41469;DHT22;27206;47.032;15.484;2023-04-03T02:15:06;4.00;99.90
41469;DHT22;27206;47.032;15.484;2023-04-03T02:17:32;3.90;99.90
41469;DHT22;27206;47.032;15.484;2023-04-03T02:19:58;3.80;99.90
41469;DHT22;27206;47.032;15.484;2023-04-03T02:22:23;3.80;99.90
41469;DHT22;27206;47.032;15.484;2023-04-03T02:24:49;3.80;99.90
41469;DHT22;27206;47.032;15.484;2023-04-03T02:27:15;3.80;99.90
41469;DHT22;27206;47.032;15.484;2023-04-03T02:29:41;3.70;99.90
41469;DHT22;27206;47.032;15.484;2023-04-03T02:32:06;3.70;99.90
41469;DHT22;27206;47.032;15.484;2023-04-03T02:34:32;3.70;99.90
41469;DHT22;27206;47.032;15.484;2023-04-03T02:36:58;3.60;99.90
41469;DHT22;27206;47.032;15.484;2023-04-03T02:39:23;3.40;99.90
41469;DHT22;27206;47.032;15.484;2023-04-03T02:41:49;3.40;99.90
41469;DHT22;27206;47.032;15.484;2023-04-03T02:44:15;3.40;99.90
41469;DHT22;27206;47.032;15.484;2023-04-03T02:46:40;3.50;99.90
41469;DHT22;27206;47.032;15.484;2023-04-03T02:49:06;3.30;99.90
41469;DHT22;27206;47.032;15.484;2023-04-03T02:51:32;3.30;99.90
41469;DHT22;27206;47.032;15.484;2023-04-03T02:53:57;3.30;99.90
41469;DHT22;27206;47.032;15.484;2023-04-03T02:56:23;3.40;99.90
41469;DHT22;27206;47.032;15.484;2023-04-03T02:58:49;3.50;99.90
41469;DHT22;27206;47.032;15.484;2023-04-03T03:01:14;3.40;99.90
41469;DHT22;27206;47.032;15.484;2023-04-03T03:03:40;3.50;99.90
41469;DHT22;27206;47.032;15.484;2023-04-03T03:06:12;3.50;99.90
41469;DHT22;27206;47.032;15.484;2023-04-03T03:08:39;3.50;99.90
41469;DHT22;27206;47.032;15.484;2023-04-03T03:11:05;3.50;99.90
41469;DHT22;27206;47.032;15.484;2023-04-03T03:13:31;3.60;99.90
41469;DHT22;27206;47.032;15.484;2023-04-03T03:15:57;3.70;99.90
41469;DHT22;27206;47.032;15.484;2023-04-03T03:18:23;3.60;99.90
41469;DHT22;27206;47.032;15.484;2023-04-03T03:20:53;3.70;99.90
41469;DHT22;27206;47.032;15.484;2023-04-03T03:23:19;3.70;99.90
41469;DHT22;27206;47.032;15.484;2023-04-03T03:25:46;3.70;99.90
41469;DHT22;27206;47.032;15.484;2023-04-03T03:28:12;3.70;99.90
41469;DHT22;27206;47.032;15.484;2023-04-03T03:30:37;3.70;99.90
41469;DHT22;27206;47.032;15.484;2023-04-03T03:33:03;3.70;99.90
41469;DHT22;27206;47.032;15.484;2023-04-03T03:35:29;3.70;99.90
41469;DHT22;27206;47.032;15.484;2023-04-03T03:37:54;3.70;99.90
41469;DHT22;27206;47.032;15.484;2023-04-03T03:40:20;3.60;99.90
41469;DHT22;27206;47.032;15.484;2023-04-03T03:42:46;3.50;99.90
41469;DHT22;27206;47.032;15.484;2023-04-03T03:45:12;3.50;99.90
41469;DHT22;27206;47.032;15.484;2023-04-03T03:47:37;3.50;99.90
41469;DHT22;27206;47.032;15.484;2023-04-03T03:50:03;3.50;99.90
41469;DHT22;27206;47.032;15.484;2023-04-03T03:52:29;3.40;99.90
41469;DHT22;27206;47.032;15.484;2023-04-03T03:54:55;3.50;99.90
41469;DHT22;27206;47.032;15.484;2023-04-03T03:57:21;3.50;99.90
41469;DHT22;27206;47.032;15.484;2023-04-03T03:59:47;3.40;99.90
41469;DHT22;27206;47.032;15.484;2023-04-03T04:02:14;3.30;99.90
41469;DHT22;27206;47.032;15.484;2023-04-03T04:04:40;3.40;99.90
41469;DHT22;27206;47.032;15.484;2023-04-03T04:07:06;3.50;99.90
41469;DHT22;27206;47.032;15.484;2023-04-03T04:09:31;3.60;99.90
41469;DHT22;27206;47.032;15.484;2023-04-03T04:11:57;3.70;99.90
41469;DHT22;27206;47.032;15.484;2023-04-03T04:14:23;3.80;99.90
41469;DHT22;27206;47.032;15.484;2023-04-03T04:16:49;3.90;99.90
41469;DHT22;27206;47.032;15.484;2023-04-03T04:19:14;4.10;99.90
41469;DHT22;27206;47.032;15.484;2023-04-03T04:21:40;4.10;99.90
41469;DHT22;27206;47.032;15.484;2023-04-03T04:24:07;4.20;99.90
41469;DHT22;27206;47.032;15.484;2023-04-03T04:26:33;4.30;99.90
41469;DHT22;27206;47.032;15.484;2023-04-03T04:28:59;4.40;99.90
41469;DHT22;27206;47.032;15.484;2023-04-03T04:31:25;4.40;99.90
41469;DHT22;27206;47.032;15.484;2023-04-03T04:33:51;4.50;99.90
41469;DHT22;27206;47.032;15.484;2023-04-03T04:36:16;4.50;99.90
41469;DHT22;27206;47.032;15.484;2023-04-03T04:38:43;4.60;99.90
41469;DHT22;27206;47.032;15.484;2023-04-03T04:41:09;4.70;99.90
41469;DHT22;27206;47.032;15.484;2023-04-03T04:43:35;4.70;99.90
41469;DHT22;27206;47.032;15.484;2023-04-03T04:48:31;4.80;99.90
41469;DHT22;27206;47.032;15.484;2023-04-03T04:50:56;4.80;99.90
41469;DHT22;27206;47.032;15.484;2023-04-03T04:53:22;4.90;99.90
41469;DHT22;27206;47.032;15.484;2023-04-03T04:55:47;4.90;99.90
41469;DHT22;27206;47.032;15.484;2023-04-03T04:58:13;4.90;99.90
41469;DHT22;27206;47.032;15.484;2023-04-03T05:00:39;4.90;99.90
41469;DHT22;27206;47.032;15.484;2023-04-03T05:03:05;5.10;99.90
41469;DHT22;27206;47.032;15.484;2023-04-03T05:05:31;5.10;99.90
41469;DHT22;27206;47.032;15.484;2023-04-03T05:07:56;5.00;99.90
41469;DHT22;27206;47.032;15.484;2023-04-03T05:10:22;5.00;99.90
41469;DHT22;27206;47.032;15.484;2023-04-03T05:12:48;5.00;99.90
41469;DHT22;27206;47.032;15.484;2023-04-03T05:15:13;5.10;99.90
41469;DHT22;27206;47.032;15.484;2023-04-03T05:17:39;5.10;99.90
41469;DHT22;27206;47.032;15.484;2023-04-03T05:20:05;5.10;99.90
41469;DHT22;27206;47.032;15.484;2023-04-03T05:22:31;5.20;99.90
41469;DHT22;27206;47.032;15.484;2023-04-03T05:24:57;5.30;99.90
41469;DHT22;27206;47.032;15.484;2023-04-03T05:27:23;5.30;99.90
41469;DHT22;27206;47.032;15.484;2023-04-03T05:29:50;5.40;99.90
41469;DHT22;27206;47.032;15.484;2023-04-03T05:32:17;5.40;99.90
41469;DHT22;27206;47.032;15.484;2023-04-03T05:34:43;5.50;99.90
41469;DHT22;27206;47.032;15.484;2023-04-03T05:37:09;5.60;99.90
41469;DHT22;27206;47.032;15.484;2023-04-03T05:39:34;5.60;99.90
41469;DHT22;27206;47.032;15.484;2023-04-03T05:42:00;5.70;99.90
41469;DHT22;27206;47.032;15.484;2023-04-03T05:44:26;5.80;99.90
41469;DHT22;27206;47.032;15.484;2023-04-03T05:46:51;5.70;99.90
41469;DHT22;27206;47.032;15.484;2023-04-03T05:49:17;5.80;99.90
41469;DHT22;27206;47.032;15.484;2023-04-03T05:51:43;5.80;99.90
41469;DHT22;27206;47.032;15.484;2023-04-03T05:54:19;5.90;99.90
41469;DHT22;27206;47.032;15.484;2023-04-03T05:56:46;5.90;99.90
41469;DHT22;27206;47.032;15.484;2023-04-03T05:59:11;5.90;99.90
41469;DHT22;27206;47.032;15.484;2023-04-03T06:01:37;5.90;99.90
41469;DHT22;27206;47.032;15.484;2023-04-03T06:04:03;6.00;99.90
41469;DHT22;27206;47.032;15.484;2023-04-03T06:06:48;5.90;99.90
41469;DHT22;27206;47.032;15.484;2023-04-03T06:09:15;6.00;99.90
41469;DHT22;27206;47.032;15.484;2023-04-03T06:11:42;6.00;99.90
41469;DHT22;27206;47.032;15.484;2023-04-03T06:14:08;6.10;99.90
41469;DHT22;27206;47.032;15.484;2023-04-03T06:16:34;6.20;99.90
41469;DHT22;27206;47.032;15.484;2023-04-03T06:19:00;6.20;99.90
41469;DHT22;27206;47.032;15.484;2023-04-03T06:21:26;6.20;99.90
41469;DHT22;27206;47.032;15.484;2023-04-03T06:23:52;6.20;99.90
41469;DHT22;27206;47.032;15.484;2023-04-03T06:26:18;6.20;99.90
41469;DHT22;27206;47.032;15.484;2023-04-03T06:28:43;6.20;99.90
41469;DHT22;27206;47.032;15.484;2023-04-03T06:31:09;6.20;99.90
41469;DHT22;27206;47.032;15.484;2023-04-03T06:33:35;6.20;99.90
41469;DHT22;27206;47.032;15.484;2023-04-03T06:36:04;6.20;99.90
41469;DHT22;27206;47.032;15.484;2023-04-03T06:38:31;6.20;99.90
41469;DHT22;27206;47.032;15.484;2023-04-03T06:40:57;6.30;99.90
41469;DHT22;27206;47.032;15.484;2023-04-03T06:43:23;6.40;99.90
41469;DHT22;27206;47.032;15.484;2023-04-03T06:45:50;6.40;99.90
41469;DHT22;27206;47.032;15.484;2023-04-03T06:48:16;6.30;99.90
41469;DHT22;27206;47.032;15.484;2023-04-03T06:50:42;6.40;99.90
41469;DHT22;27206;47.032;15.484;2023-04-03T06:53:08;6.40;99.90
41469;DHT22;27206;47.032;15.484;2023-04-03T06:55:33;6.50;99.90
41469;DHT22;27206;47.032;15.484;2023-04-03T06:57:59;6.60;99.90
41469;DHT22;27206;47.032;15.484;2023-04-03T07:00:26;6.60;99.90
41469;DHT22;27206;47.032;15.484;2023-04-03T07:02:51;6.70;99.90
41469;DHT22;27206;47.032;15.484;2023-04-03T07:05:18;6.70;99.90
41469;DHT22;27206;47.032;15.484;2023-04-03T07:07:43;6.80;99.90
41469;DHT22;27206;47.032;15.484;2023-04-03T07:10:10;6.80;99.90
41469;DHT22;27206;47.032;15.484;2023-04-03T07:12:36;6.90;99.90
41469;DHT22;27206;47.032;15.484;2023-04-03T07:15:04;7.00;99.90
41469;DHT22;27206;47.032;15.484;2023-04-03T07:17:30;7.10;99.90
41469;DHT22;27206;47.032;15.484;2023-04-03T07:19:56;7.40;99.90
41469;DHT22;27206;47.032;15.484;2023-04-03T07:22:22;7.50;99.90
41469;DHT22;27206;47.032;15.484;2023-04-03T07:24:48;7.40;99.90
41469;DHT22;27206;47.032;15.484;2023-04-03T07:27:13;7.30;99.90
41469;DHT22;27206;47.032;15.484;2023-04-03T07:29:39;7.50;99.90
41469;DHT22;27206;47.032;15.484;2023-04-03T07:32:06;7.80;99.90
41469;DHT22;27206;47.032;15.484;2023-04-03T07:34:32;8.00;99.90
41469;DHT22;27206;47.032;15.484;2023-04-03T07:36:58;8.10;99.90
41469;DHT22;27206;47.032;15.484;2023-04-03T07:39:24;8.10;99.90
41469;DHT22;27206;47.032;15.484;2023-04-03T07:41:51;8.40;99.90
41469;DHT22;27206;47.032;15.484;2023-04-03T07:44:17;8.60;99.90
41469;DHT22;27206;47.032;15.484;2023-04-03T07:46:43;8.90;99.90
41469;DHT22;27206;47.032;15.484;2023-04-03T07:49:09;9.00;99.90
41469;DHT22;27206;47.032;15.484;2023-04-03T07:51:34;8.60;99.90
41469;DHT22;27206;47.032;15.484;2023-04-03T07:54:00;8.30;99.90
41469;DHT22;27206;47.032;15.484;2023-04-03T07:56:26;8.20;99.90
41469;DHT22;27206;47.032;15.484;2023-04-03T07:58:52;7.90;99.90
41469;DHT22;27206;47.032;15.484;2023-04-03T08:01:17;8.00;99.90
41469;DHT22;27206;47.032;15.484;2023-04-03T08:03:43;8.10;99.90
41469;DHT22;27206;47.032;15.484;2023-04-03T08:06:09;8.10;99.90
41469;DHT22;27206;47.032;15.484;2023-04-03T08:08:35;8.20;99.90
41469;DHT22;27206;47.032;15.484;2023-04-03T08:11:02;8.20;99.90
41469;DHT22;27206;47.032;15.484;2023-04-03T08:13:29;8.20;99.90
41469;DHT22;27206;47.032;15.484;2023-04-03T08:15:56;8.10;99.90
41469;DHT22;27206;47.032;15.484;2023-04-03T08:18:23;8.00;99.90
41469;DHT22;27206;47.032;15.484;2023-04-03T08:20:50;8.00;99.90
41469;DHT22;27206;47.032;15.484;2023-04-03T08:23:16;8.20;99.90
41469;DHT22;27206;47.032;15.484;2023-04-03T08:25:42;8.40;99.90
41469;DHT22;27206;47.032;15.484;2023-04-03T08:28:09;8.30;99.90
41469;DHT22;27206;47.032;15.484;2023-04-03T08:30:40;8.20;99.90
41469;DHT22;27206;47.032;15.484;2023-04-03T08:33:06;8.80;99.90
41469;DHT22;27206;47.032;15.484;2023-04-03T08:35:32;9.20;99.90
41469;DHT22;27206;47.032;15.484;2023-04-03T08:37:58;9.10;99.90
41469;DHT22;27206;47.032;15.484;2023-04-03T08:40:24;8.90;99.90
41469;DHT22;27206;47.032;15.484;2023-04-03T08:48:31;9.50;99.90
41469;DHT22;27206;47.032;15.484;2023-04-03T08:51:02;9.20;99.90
41469;DHT22;27206;47.032;15.484;2023-04-03T08:53:33;9.20;99.90
41469;DHT22;27206;47.032;15.484;2023-04-03T08:56:10;9.40;99.90
41469;DHT22;27206;47.032;15.484;2023-04-03T08:58:55;9.60;99.90
41469;DHT22;27206;47.032;15.484;2023-04-03T09:03:50;9.70;99.90
41469;DHT22;27206;47.032;15.484;2023-04-03T09:06:21;10.10;99.90
41469;DHT22;27206;47.032;15.484;2023-04-03T09:09:12;10.10;99.90
41469;DHT22;27206;47.032;15.484;2023-04-03T09:14:36;10.00;99.90
41469;DHT22;27206;47.032;15.484;2023-04-03T09:19:44;9.30;99.90
41469;DHT22;27206;47.032;15.484;2023-04-03T09:22:27;9.10;99.90
41469;DHT22;27206;47.032;15.484;2023-04-03T09:27:38;9.00;99.90
41469;DHT22;27206;47.032;15.484;2023-04-03T09:30:05;9.00;99.90
41469;DHT22;27206;47.032;15.484;2023-04-03T09:32:34;8.80;99.90
41469;DHT22;27206;47.032;15.484;2023-04-03T09:35:18;8.60;99.90
41469;DHT22;27206;47.032;15.484;2023-04-03T09:37:46;8.40;99.90
41469;DHT22;27206;47.032;15.484;2023-04-03T09:42:51;9.00;99.90
41469;DHT22;27206;47.032;15.484;2023-04-03T09:45:25;8.50;99.90
41469;DHT22;27206;47.032;15.484;2023-04-03T09:48:24;8.60;99.90
41469;DHT22;27206;47.032;15.484;2023-04-03T09:53:49;8.70;99.90
41469;DHT22;27206;47.032;15.484;2023-04-03T09:59:13;8.60;99.90
41469;DHT22;27206;47.032;15.484;2023-04-03T10:01:43;8.50;99.90
41469;DHT22;27206;47.032;15.484;2023-04-03T10:06:43;8.40;99.90
41469;DHT22;27206;47.032;15.484;2023-04-03T10:14:31;9.80;99.90
41469;DHT22;27206;47.032;15.484;2023-04-03T10:17:18;9.50;99.90
41469;DHT22;27206;47.032;15.484;2023-04-03T10:22:34;10.60;99.90
41469;DHT22;27206;47.032;15.484;2023-04-03T10:28:00;8.90;99.90
41469;DHT22;27206;47.032;15.484;2023-04-03T10:30:42;9.40;99.90
41469;DHT22;27206;47.032;15.484;2023-04-03T10:45:10;11.90;99.90
41469;DHT22;27206;47.032;15.484;2023-04-03T10:50:58;13.80;99.90
41469;DHT22;27206;47.032;15.484;2023-04-03T10:54:32;14.60;99.90
41469;DHT22;27206;47.032;15.484;2023-04-03T10:57:10;15.50;99.90
41469;DHT22;27206;47.032;15.484;2023-04-03T11:00:01;16.00;99.90
41469;DHT22;27206;47.032;15.484;2023-04-03T11:02:35;15.90;99.90
41469;DHT22;27206;47.032;15.484;2023-04-03T11:05:15;15.50;99.90
41469;DHT22;27206;47.032;15.484;2023-04-03T11:07:46;15.50;99.90
41469;DHT22;27206;47.032;15.484;2023-04-03T11:10:36;13.30;99.90
41469;DHT22;27206;47.032;15.484;2023-04-03T11:13:11;11.80;99.90
41469;DHT22;27206;47.032;15.484;2023-04-03T11:15:38;11.50;99.90
41469;DHT22;27206;47.032;15.484;2023-04-03T11:18:10;10.90;99.90
41469;DHT22;27206;47.032;15.484;2023-04-03T11:20:42;10.70;99.90
41469;DHT22;27206;47.032;15.484;2023-04-03T11:23:25;10.30;99.90
41469;DHT22;27206;47.032;15.484;2023-04-03T11:26:10;10.60;99.90
41469;DHT22;27206;47.032;15.484;2023-04-03T11:28:37;10.60;99.90
41469;DHT22;27206;47.032;15.484;2023-04-03T11:31:15;10.30;99.90
41469;DHT22;27206;47.032;15.484;2023-04-03T11:36:31;9.90;99.90
41469;DHT22;27206;47.032;15.484;2023-04-03T11:39:02;10.20;99.90
41469;DHT22;27206;47.032;15.484;2023-04-03T11:41:33;10.00;99.90
41469;DHT22;27206;47.032;15.484;2023-04-03T11:44:01;10.00;99.90
41469;DHT22;27206;47.032;15.484;2023-04-03T11:46:56;9.70;99.90
41469;DHT22;27206;47.032;15.484;2023-04-03T12:11:26;11.60;99.90
41469;DHT22;27206;47.032;15.484;2023-04-03T12:16:28;10.20;99.90
41469;DHT22;27206;47.032;15.484;2023-04-03T12:29:42;12.10;99.90
41469;DHT22;27206;47.032;15.484;2023-04-03T12:35:38;11.30;99.90
41469;DHT22;27206;47.032;15.484;2023-04-03T12:46:24;10.60;99.90
41469;DHT22;27206;47.032;15.484;2023-04-03T12:48:58;9.70;99.90
41469;DHT22;27206;47.032;15.484;2023-04-03T12:51:39;9.90;99.90
41469;DHT22;27206;47.032;15.484;2023-04-03T12:54:32;10.50;99.90
41469;DHT22;27206;47.032;15.484;2023-04-03T12:59:43;11.10;99.90
41469;DHT22;27206;47.032;15.484;2023-04-03T13:02:30;11.80;99.90
41469;DHT22;27206;47.032;15.484;2023-04-03T13:04:58;12.20;99.90
41469;DHT22;27206;47.032;15.484;2023-04-03T13:07:32;11.30;99.90
41469;DHT22;27206;47.032;15.484;2023-04-03T13:12:53;11.40;99.90
41469;DHT22;27206;47.032;15.484;2023-04-03T13:16:01;10.50;99.90
41469;DHT22;27206;47.032;15.484;2023-04-03T13:18:42;10.30;99.90
41469;DHT22;27206;47.032;15.484;2023-04-03T13:21:39;9.90;99.90
41469;DHT22;27206;47.032;15.484;2023-04-03T13:24:05;11.40;99.90
41469;DHT22;27206;47.032;15.484;2023-04-03T13:26:32;13.40;99.90
41469;DHT22;27206;47.032;15.484;2023-04-03T13:29:05;13.70;99.90
41469;DHT22;27206;47.032;15.484;2023-04-03T13:31:36;13.50;99.90
41469;DHT22;27206;47.032;15.484;2023-04-03T13:34:06;13.10;99.90
41469;DHT22;27206;47.032;15.484;2023-04-03T13:37:00;13.70;99.90
41469;DHT22;27206;47.032;15.484;2023-04-03T13:39:31;15.20;99.90
41469;DHT22;27206;47.032;15.484;2023-04-03T13:42:21;16.20;99.90
41469;DHT22;27206;47.032;15.484;2023-04-03T13:44:47;15.40;99.90
41469;DHT22;27206;47.032;15.484;2023-04-03T13:47:22;12.70;99.90
41469;DHT22;27206;47.032;15.484;2023-04-03T13:50:15;12.90;99.90
41469;DHT22;27206;47.032;15.484;2023-04-03T13:52:51;12.20;99.90
41469;DHT22;27206;47.032;15.484;2023-04-03T13:55:36;11.00;99.90
41469;DHT22;27206;47.032;15.484;2023-04-03T13:58:22;10.60;99.90
41469;DHT22;27206;47.032;15.484;2023-04-03T14:01:00;11.20;99.90
41469;DHT22;27206;47.032;15.484;2023-04-03T14:04:11;10.70;99.90
41469;DHT22;27206;47.032;15.484;2023-04-03T14:06:16;10.70;99.90
41469;DHT22;27206;47.032;15.484;2023-04-03T14:08:43;11.00;99.90
41469;DHT22;27206;47.032;15.484;2023-04-03T14:11:20;10.70;99.90
41469;DHT22;27206;47.032;15.484;2023-04-03T14:13:48;10.40;99.90
41469;DHT22;27206;47.032;15.484;2023-04-03T14:16:16;10.30;99.90
41469;DHT22;27206;47.032;15.484;2023-04-03T14:18:44;10.30;99.90
41469;DHT22;27206;47.032;15.484;2023-04-03T14:21:12;10.60;99.90
41469;DHT22;27206;47.032;15.484;2023-04-03T14:23:38;10.00;99.90
41469;DHT22;27206;47.032;15.484;2023-04-03T14:26:08;10.30;99.90
41469;DHT22;27206;47.032;15.484;2023-04-03T14:28:35;11.40;99.90
41469;DHT22;27206;47.032;15.484;2023-04-03T14:31:01;11.10;99.90
41469;DHT22;27206;47.032;15.484;2023-04-03T14:33:26;11.60;99.90
41469;DHT22;27206;47.032;15.484;2023-04-03T14:35:54;12.20;99.90
41469;DHT22;27206;47.032;15.484;2023-04-03T14:38:26;12.20;99.90
41469;DHT22;27206;47.032;15.484;2023-04-03T14:40:54;11.60;99.90
41469;DHT22;27206;47.032;15.484;2023-04-03T14:43:20;13.00;99.90
41469;DHT22;27206;47.032;15.484;2023-04-03T14:45:48;14.10;99.90
41469;DHT22;27206;47.032;15.484;2023-04-03T14:48:20;13.30;99.90
41469;DHT22;27206;47.032;15.484;2023-04-03T14:50:47;12.10;99.90
41469;DHT22;27206;47.032;15.484;2023-04-03T14:53:14;11.10;99.90
41469;DHT22;27206;47.032;15.484;2023-04-03T14:55:44;12.50;99.90
41469;DHT22;27206;47.032;15.484;2023-04-03T14:58:15;11.60;99.90
41469;DHT22;27206;47.032;15.484;2023-04-03T15:00:42;11.30;99.90
41469;DHT22;27206;47.032;15.484;2023-04-03T15:03:21;11.30;99.90
41469;DHT22;27206;47.032;15.484;2023-04-03T15:05:48;10.90;99.90
41469;DHT22;27206;47.032;15.484;2023-04-03T15:08:22;10.70;99.90
41469;DHT22;27206;47.032;15.484;2023-04-03T15:10:49;10.70;99.90
41469;DHT22;27206;47.032;15.484;2023-04-03T15:13:15;11.00;99.90
41469;DHT22;27206;47.032;15.484;2023-04-03T15:15:41;12.80;99.90
41469;DHT22;27206;47.032;15.484;2023-04-03T15:18:11;13.20;99.90
41469;DHT22;27206;47.032;15.484;2023-04-03T15:20:39;12.80;99.90
41469;DHT22;27206;47.032;15.484;2023-04-03T15:23:05;12.70;99.90
41469;DHT22;27206;47.032;15.484;2023-04-03T15:25:32;13.80;99.90
41469;DHT22;27206;47.032;15.484;2023-04-03T15:27:58;12.40;99.90
41469;DHT22;27206;47.032;15.484;2023-04-03T15:30:24;12.40;99.90
41469;DHT22;27206;47.032;15.484;2023-04-03T15:32:50;12.40;99.90
41469;DHT22;27206;47.032;15.484;2023-04-03T15:35:16;13.50;99.90
41469;DHT22;27206;47.032;15.484;2023-04-03T15:37:42;12.80;99.90
41469;DHT22;27206;47.032;15.484;2023-04-03T15:40:08;12.60;99.90
41469;DHT22;27206;47.032;15.484;2023-04-03T15:42:34;12.00;99.90
41469;DHT22;27206;47.032;15.484;2023-04-03T15:45:00;11.60;99.90
41469;DHT22;27206;47.032;15.484;2023-04-03T15:47:26;10.90;99.90
41469;DHT22;27206;47.032;15.484;2023-04-03T15:49:53;11.00;99.90
41469;DHT22;27206;47.032;15.484;2023-04-03T15:52:20;12.10;99.90
41469;DHT22;27206;47.032;15.484;2023-04-03T15:54:45;11.40;99.90
41469;DHT22;27206;47.032;15.484;2023-04-03T15:57:11;11.50;99.90
41469;DHT22;27206;47.032;15.484;2023-04-03T15:59:36;11.60;99.90
41469;DHT22;27206;47.032;15.484;2023-04-03T16:02:05;13.20;99.90
41469;DHT22;27206;47.032;15.484;2023-04-03T16:04:32;13.90;99.90
41469;DHT22;27206;47.032;15.484;2023-04-03T16:07:01;13.10;99.90
41469;DHT22;27206;47.032;15.484;2023-04-03T16:09:27;12.90;99.90
41469;DHT22;27206;47.032;15.484;2023-04-03T16:11:53;12.70;99.90
41469;DHT22;27206;47.032;15.484;2023-04-03T16:14:18;12.90;99.90
41469;DHT22;27206;47.032;15.484;2023-04-03T16:16:44;13.40;99.90
41469;DHT22;27206;47.032;15.484;2023-04-03T16:19:10;13.40;99.90
41469;DHT22;27206;47.032;15.484;2023-04-03T16:21:35;13.30;99.90
41469;DHT22;27206;47.032;15.484;2023-04-03T16:24:01;12.60;99.90
41469;DHT22;27206;47.032;15.484;2023-04-03T16:26:27;12.30;99.90
41469;DHT22;27206;47.032;15.484;2023-04-03T16:28:53;11.80;99.90
41469;DHT22;27206;47.032;15.484;2023-04-03T16:31:20;12.10;99.90
41469;DHT22;27206;47.032;15.484;2023-04-03T16:33:46;12.10;99.90
41469;DHT22;27206;47.032;15.484;2023-04-03T16:36:11;12.10;99.90
41469;DHT22;27206;47.032;15.484;2023-04-03T16:38:37;11.90;99.90
41469;DHT22;27206;47.032;15.484;2023-04-03T16:41:02;11.90;99.90
41469;DHT22;27206;47.032;15.484;2023-04-03T16:43:31;11.80;99.90
41469;DHT22;27206;47.032;15.484;2023-04-03T16:45:57;10.10;99.90
41469;DHT22;27206;47.032;15.484;2023-04-03T16:48:23;10.00;99.90
41469;DHT22;27206;47.032;15.484;2023-04-03T16:50:49;9.90;99.90
41469;DHT22;27206;47.032;15.484;2023-04-03T16:53:21;9.80;99.90
41469;DHT22;27206;47.032;15.484;2023-04-03T16:55:47;9.50;99.90
41469;DHT22;27206;47.032;15.484;2023-04-03T16:58:13;9.00;99.90
41469;DHT22;27206;47.032;15.484;2023-04-03T17:00:40;9.10;99.90
41469;DHT22;27206;47.032;15.484;2023-04-03T17:03:05;9.20;99.90
41469;DHT22;27206;47.032;15.484;2023-04-03T17:05:31;8.80;99.90
41469;DHT22;27206;47.032;15.484;2023-04-03T17:07:57;8.30;99.90
41469;DHT22;27206;47.032;15.484;2023-04-03T17:10:23;8.20;99.90
41469;DHT22;27206;47.032;15.484;2023-04-03T17:12:49;7.90;99.90
41469;DHT22;27206;47.032;15.484;2023-04-03T17:15:15;7.10;99.90
41469;DHT22;27206;47.032;15.484;2023-04-03T17:17:42;7.20;99.90
41469;DHT22;27206;47.032;15.484;2023-04-03T17:20:08;6.60;99.90
41469;DHT22;27206;47.032;15.484;2023-04-03T17:22:34;6.80;99.90
41469;DHT22;27206;47.032;15.484;2023-04-03T17:25:00;6.90;99.90
41469;DHT22;27206;47.032;15.484;2023-04-03T17:27:26;6.60;99.90
41469;DHT22;27206;47.032;15.484;2023-04-03T17:29:51;6.50;99.90
41469;DHT22;27206;47.032;15.484;2023-04-03T17:32:17;6.30;99.90
41469;DHT22;27206;47.032;15.484;2023-04-03T17:34:45;6.30;99.90
41469;DHT22;27206;47.032;15.484;2023-04-03T17:37:11;6.20;99.90
41469;DHT22;27206;47.032;15.484;2023-04-03T17:39:37;6.20;99.90
41469;DHT22;27206;47.032;15.484;2023-04-03T17:42:04;6.20;99.90